Time;durP1;ratioP1;P1;durP2;ratioP2;P2;SDS_P1;SDS_P2;PMS_P1;PMS_P2;Temp;Humidity;BMP_temperature;BMP_pressure;BME280_temperature;BME280_humidity;BME280_pressure;Samples;Min_cycle;Max_cycle;Signal;HPM_P1;HPM_P2
2024/01/22 00:00:13;;;;;;;2.60;2.40;;;8.40;99.90;;;;;;3112652;28;20053;-70
2024/01/22 00:01:45;;;;;;;3.78;2.95;;;8.50;99.90;;;;;;3112792;28;20036;-71
2024/01/22 00:03:17;;;;;;;5.80;2.90;;;8.50;99.90;;;;;;3117010;28;20072;-71
2024/01/22 00:04:48;;;;;;;2.40;2.20;;;8.50;99.90;;;;;;3117161;28;20300;-70
2024/01/22 00:06:19;;;;;;;2.25;1.73;;;8.50;99.90;;;;;;3104581;28;20014;-70
2024/01/22 00:07:49;;;;;;;2.88;2.30;;;8.50;99.90;;;;;;3107251;28;20071;-71
2024/01/22 00:09:20;;;;;;;2.35;1.73;;;8.60;99.90;;;;;;3100165;28;20245;-72
2024/01/22 00:10:51;;;;;;;3.03;2.45;;;8.70;99.90;;;;;;3114532;28;20100;-71
2024/01/22 00:12:22;;;;;;;3.15;2.88;;;8.70;99.90;;;;;;3126670;28;20462;-71
2024/01/22 00:13:53;;;;;;;9.68;2.72;;;8.70;99.90;;;;;;3115758;28;20037;-71
2024/01/22 00:15:23;;;;;;;3.63;2.30;;;8.70;99.90;;;;;;3116892;28;20373;-70
2024/01/22 00:16:54;;;;;;;4.10;2.90;;;8.70;99.90;;;;;;3092012;28;20121;-70
2024/01/22 00:18:25;;;;;;;3.92;2.33;;;8.70;99.90;;;;;;3083785;28;20335;-71
2024/01/22 00:19:56;;;;;;;2.85;2.58;;;8.70;99.90;;;;;;3108088;28;20034;-72
2024/01/22 00:21:27;;;;;;;5.10;3.03;;;;;;;;;;3104329;28;20030;-71
2024/01/22 00:22:58;;;;;;;3.38;3.05;;;8.80;99.90;;;;;;3088375;28;20246;-71
2024/01/22 00:24:28;;;;;;;2.00;1.90;;;8.80;99.90;;;;;;3111318;28;20025;-71
2024/01/22 00:25:59;;;;;;;5.63;3.17;;;8.80;99.90;;;;;;3116387;28;20098;-72
2024/01/22 00:27:30;;;;;;;11.20;3.42;;;8.80;99.90;;;;;;3103351;28;20133;-70
2024/01/22 00:29:01;;;;;;;3.85;3.30;;;8.80;99.90;;;;;;3099965;28;20101;-71
2024/01/22 00:30:31;;;;;;;5.95;2.90;;;8.80;99.90;;;;;;3112732;28;20259;-71
2024/01/22 00:32:03;;;;;;;3.95;2.35;;;8.80;99.90;;;;;;3116302;28;20097;-72
2024/01/22 00:33:34;;;;;;;2.55;1.90;;;8.80;99.90;;;;;;3091883;28;20026;-71
2024/01/22 00:35:05;;;;;;;1.95;1.67;;;8.80;99.90;;;;;;3108122;28;20361;-71
2024/01/22 00:36:36;;;;;;;2.75;2.60;;;8.80;99.90;;;;;;3100351;28;20026;-72
2024/01/22 00:38:07;;;;;;;4.57;2.47;;;8.90;99.90;;;;;;3110751;28;20466;-73
2024/01/22 00:39:38;;;;;;;2.67;1.83;;;8.90;99.90;;;;;;3112158;28;20033;-72
2024/01/22 00:41:09;;;;;;;2.25;1.95;;;8.90;99.90;;;;;;3108866;28;20029;-73
2024/01/22 00:42:42;;;;;;;2.00;1.90;;;8.90;99.90;;;;;;3122997;28;20033;-71
2024/01/22 00:44:13;;;;;;;4.15;1.90;;;8.90;99.90;;;;;;3099050;28;20035;-71
2024/01/22 00:45:44;;;;;;;4.28;2.33;;;8.90;99.90;;;;;;3102910;28;20028;-72
2024/01/22 00:47:15;;;;;;;8.00;2.72;;;8.90;99.90;;;;;;3124639;28;20029;-72
2024/01/22 00:48:45;;;;;;;3.35;2.70;;;8.90;99.90;;;;;;3119344;28;20034;-71
2024/01/22 00:50:16;;;;;;;2.00;1.90;;;8.90;99.90;;;;;;3118885;28;20022;-72
2024/01/22 00:51:47;;;;;;;7.45;3.25;;;8.90;99.90;;;;;;3106765;28;20019;-71
2024/01/22 00:53:18;;;;;;;2.83;1.98;;;8.90;99.90;;;;;;3102022;28;20034;-72
2024/01/22 00:54:48;;;;;;;1.95;1.83;;;8.90;99.90;;;;;;3110603;28;20038;-71
2024/01/22 00:56:19;;;;;;;2.05;1.95;;;8.90;99.90;;;;;;3119233;28;20029;-71
2024/01/22 00:57:50;;;;;;;3.30;1.13;;;8.90;99.90;;;;;;3117275;28;20016;-71
2024/01/22 00:59:22;;;;;;;2.03;1.92;;;8.90;99.90;;;;;;3118520;28;20026;-71
2024/01/22 01:00:54;;;;;;;1.92;1.60;;;8.90;99.90;;;;;;3102425;28;20038;-72
2024/01/22 01:02:25;;;;;;;3.13;1.92;;;8.90;99.90;;;;;;3106548;28;20027;-71
2024/01/22 01:03:56;;;;;;;2.60;2.17;;;9.00;99.90;;;;;;3109025;28;20021;-73
2024/01/22 01:05:27;;;;;;;1.85;1.75;;;9.00;99.90;;;;;;3090168;28;20109;-71
2024/01/22 01:06:58;;;;;;;2.13;2.03;;;9.00;99.90;;;;;;3102778;28;20061;-72
2024/01/22 01:08:30;;;;;;;3.40;2.70;;;9.00;99.90;;;;;;3138850;28;20025;-71
2024/01/22 01:10:01;;;;;;;3.22;1.35;;;9.00;99.90;;;;;;3134696;28;20225;-73
2024/01/22 01:11:32;;;;;;;2.97;1.77;;;9.10;99.90;;;;;;3127405;28;20026;-70
2024/01/22 01:13:03;;;;;;;1.85;1.73;;;9.00;99.90;;;;;;3094240;28;20062;-72
2024/01/22 01:14:33;;;;;;;2.50;2.15;;;9.00;99.90;;;;;;3096455;28;20034;-71
2024/01/22 01:16:04;;;;;;;1.73;1.42;;;9.00;99.90;;;;;;3114704;28;20101;-73
2024/01/22 01:17:36;;;;;;;2.85;2.50;;;9.00;99.90;;;;;;3112785;28;20036;-71
2024/01/22 01:19:08;;;;;;;3.67;1.58;;;9.00;99.90;;;;;;3119496;28;20219;-73
2024/01/22 01:20:39;;;;;;;3.08;2.45;;;9.00;99.90;;;;;;3118719;28;20144;-71
2024/01/22 01:22:09;;;;;;;1.67;1.58;;;9.10;99.90;;;;;;3118360;28;20291;-71
2024/01/22 01:23:40;;;;;;;2.15;1.40;;;9.10;99.90;;;;;;3103432;28;20026;-71
2024/01/22 01:25:11;;;;;;;3.50;1.58;;;9.10;99.90;;;;;;3102387;28;20035;-72
2024/01/22 01:26:43;;;;;;;1.70;1.60;;;9.20;99.90;;;;;;3106717;28;20028;-71
2024/01/22 01:28:14;;;;;;;2.60;1.60;;;9.20;99.90;;;;;;3128955;28;20041;-70
2024/01/22 01:29:44;;;;;;;2.85;2.65;;;9.20;99.90;;;;;;3118518;28;20339;-72
2024/01/22 01:31:15;;;;;;;1.52;1.40;;;9.10;99.90;;;;;;3119059;28;20037;-73
2024/01/22 01:32:46;;;;;;;2.35;1.40;;;9.10;99.90;;;;;;3117788;28;20026;-71
2024/01/22 01:34:17;;;;;;;1.88;1.02;;;9.10;99.90;;;;;;3118642;28;20033;-71
2024/01/22 01:35:48;;;;;;;1.67;1.58;;;9.00;99.90;;;;;;3130820;28;20383;-72
2024/01/22 01:37:18;;;;;;;4.25;2.03;;;9.10;99.90;;;;;;3122064;28;20026;-72
2024/01/22 01:38:49;;;;;;;1.15;1.08;;;9.10;99.90;;;;;;3118277;28;20036;-71
2024/01/22 01:40:20;;;;;;;2.28;1.35;;;9.10;99.90;;;;;;3118633;28;20030;-72
2024/01/22 01:41:51;;;;;;;6.70;2.00;;;9.10;99.90;;;;;;3130703;28;20101;-70
2024/01/22 01:43:22;;;;;;;3.13;2.35;;;9.10;99.90;;;;;;3121937;28;20246;-71
2024/01/22 01:44:54;;;;;;;2.40;2.20;;;9.10;99.90;;;;;;3105605;28;20076;-71
2024/01/22 01:46:25;;;;;;;1.88;1.70;;;9.20;99.90;;;;;;3102426;28;20045;-72
2024/01/22 01:47:56;;;;;;;4.15;2.13;;;9.20;99.90;;;;;;3113379;28;20063;-71
2024/01/22 01:49:27;;;;;;;3.17;1.90;;;9.20;99.90;;;;;;3117999;28;20329;-71
2024/01/22 01:50:58;;;;;;;1.52;1.35;;;9.30;99.90;;;;;;3113979;28;20041;-70
2024/01/22 01:52:29;;;;;;;2.03;1.63;;;9.30;99.90;;;;;;3113991;28;20052;-71
2024/01/22 01:54:02;;;;;;;2.55;1.45;;;9.40;99.90;;;;;;3113546;28;20045;-71
2024/01/22 01:55:37;;;;;;;7.00;2.05;;;9.40;99.90;;;;;;3114459;28;20064;-71
2024/01/22 01:57:08;;;;;;;4.65;1.67;;;9.40;99.90;;;;;;3117950;28;20041;-71
2024/01/22 01:58:39;;;;;;;2.65;2.00;;;9.40;99.90;;;;;;3125025;28;20089;-70
2024/01/22 02:00:11;;;;;;;4.63;2.03;;;9.30;99.90;;;;;;3131085;28;20025;-71
2024/01/22 02:01:41;;;;;;;1.88;1.77;;;9.40;99.90;;;;;;3142534;28;20016;-71
2024/01/22 02:03:12;;;;;;;1.00;1.00;;;9.40;99.90;;;;;;3134261;28;20044;-70
2024/01/22 02:04:43;;;;;;;3.95;1.15;;;9.40;99.90;;;;;;3120020;28;20024;-71
2024/01/22 02:06:14;;;;;;;1.70;1.45;;;9.40;99.90;;;;;;3114135;28;20231;-71
2024/01/22 02:07:45;;;;;;;2.03;1.83;;;9.40;99.90;;;;;;3112751;28;20109;-70
2024/01/22 02:09:15;;;;;;;4.35;1.52;;;9.40;99.90;;;;;;3118288;28;20227;-71
2024/01/22 02:10:47;;;;;;;1.13;1.02;;;9.50;99.90;;;;;;3123276;28;20093;-71
2024/01/22 02:12:19;;;;;;;1.63;1.40;;;9.50;99.90;;;;;;3105607;28;20034;-70
2024/01/22 02:13:50;;;;;;;2.15;1.13;;;9.50;99.90;;;;;;3107436;28;20029;-73
2024/01/22 02:15:21;;;;;;;2.00;1.77;;;9.60;99.90;;;;;;3088688;28;20027;-71
2024/01/22 02:16:52;;;;;;;1.40;1.30;;;9.50;99.90;;;;;;3110650;28;20010;-71
2024/01/22 02:18:24;;;;;;;5.97;2.15;;;9.50;99.90;;;;;;3119172;28;20037;-70
2024/01/22 02:19:54;;;;;;;1.35;1.25;;;9.60;99.90;;;;;;3105405;28;20018;-71
2024/01/22 02:21:25;;;;;;;2.20;1.38;;;9.60;99.90;;;;;;3106081;28;20058;-72
2024/01/22 02:23:06;;;;;;;2.58;1.30;;;9.60;99.90;;;;;;3106278;28;20097;-70
2024/01/22 02:24:37;;;;;;;2.85;1.20;;;9.60;99.90;;;;;;3102035;28;20089;-70
2024/01/22 02:26:08;;;;;;;1.40;1.33;;;9.70;99.90;;;;;;3121788;28;20017;-72
2024/01/22 02:27:39;;;;;;;2.35;1.27;;;9.70;99.90;;;;;;3112501;28;20072;-71
2024/01/22 02:29:09;;;;;;;2.63;1.73;;;9.70;99.90;;;;;;3114219;28;20041;-72
2024/01/22 02:30:40;;;;;;;1.63;1.52;;;9.70;99.90;;;;;;3118516;28;20300;-71
2024/01/22 02:32:11;;;;;;;1.67;1.30;;;9.80;99.90;;;;;;3105225;28;20065;-70
2024/01/22 02:33:42;;;;;;;1.55;1.35;;;9.80;99.90;;;;;;3114006;28;20350;-70
2024/01/22 02:35:13;;;;;;;1.50;1.40;;;9.90;99.90;;;;;;3105158;28;20026;-70
2024/01/22 02:36:45;;;;;;;1.55;1.45;;;9.90;99.90;;;;;;3113795;28;20018;-71
2024/01/22 02:38:16;;;;;;;2.30;1.48;;;9.90;99.90;;;;;;3116761;28;20334;-71
2024/01/22 02:39:47;;;;;;;5.57;1.20;;;9.90;99.90;;;;;;3118349;28;20033;-71
2024/01/22 02:41:18;;;;;;;1.08;1.00;;;10.00;99.90;;;;;;3105346;28;20014;-70
2024/01/22 02:42:50;;;;;;;3.55;1.77;;;10.10;99.90;;;;;;3113492;28;20030;-70
2024/01/22 02:44:21;;;;;;;1.40;1.30;;;10.10;99.90;;;;;;3113372;28;20025;-71
2024/01/22 02:45:52;;;;;;;1.90;0.82;;;10.10;99.90;;;;;;3113280;28;20025;-70
2024/01/22 02:47:23;;;;;;;3.67;1.52;;;10.20;99.90;;;;;;3116868;28;20097;-71
2024/01/22 02:48:54;;;;;;;1.38;1.10;;;10.30;99.90;;;;;;3117568;28;20109;-71
2024/01/22 02:50:24;;;;;;;2.00;1.30;;;10.30;99.90;;;;;;3113412;28;20018;-70
2024/01/22 02:51:55;;;;;;;1.63;1.50;;;10.40;99.90;;;;;;3104721;28;20037;-72
2024/01/22 02:53:27;;;;;;;1.73;0.98;;;10.30;99.90;;;;;;3106349;28;20365;-71
2024/01/22 02:54:58;;;;;;;2.58;1.27;;;10.30;99.90;;;;;;3131527;28;20507;-70
2024/01/22 02:56:28;;;;;;;1.10;1.02;;;10.30;99.90;;;;;;3121997;28;20022;-71
2024/01/22 02:57:59;;;;;;;2.45;1.75;;;10.30;99.90;;;;;;3116085;28;20112;-71
2024/01/22 02:59:31;;;;;;;1.50;1.30;;;10.30;99.90;;;;;;3118206;28;20137;-70
2024/01/22 03:01:01;;;;;;;1.80;1.70;;;10.20;99.90;;;;;;3117318;28;20034;-70
2024/01/22 03:02:32;;;;;;;1.38;1.17;;;9.90;99.90;;;;;;3117398;28;20359;-71
2024/01/22 03:04:03;;;;;;;4.00;1.17;;;10.10;99.90;;;;;;3128571;28;20022;-70
2024/01/22 03:05:34;;;;;;;1.58;1.38;;;10.10;99.90;;;;;;3118420;28;20025;-71
2024/01/22 03:07:05;;;;;;;1.50;1.10;;;10.00;99.90;;;;;;3109204;28;20052;-70
2024/01/22 03:08:36;;;;;;;0.80;0.73;;;10.10;99.90;;;;;;3089711;28;20110;-71
2024/01/22 03:10:07;;;;;;;2.50;1.38;;;10.00;99.90;;;;;;3101622;28;20026;-71
2024/01/22 03:11:38;;;;;;;1.27;1.05;;;10.00;99.90;;;;;;3105028;28;20315;-71
2024/01/22 03:13:08;;;;;;;1.30;1.20;;;10.00;99.90;;;;;;3116489;28;20026;-71
2024/01/22 03:14:39;;;;;;;0.93;0.80;;;10.00;99.90;;;;;;3104946;28;20038;-71
2024/01/22 03:16:10;;;;;;;1.35;1.25;;;10.00;99.90;;;;;;3105343;28;20023;-71
2024/01/22 03:17:41;;;;;;;1.10;1.08;;;10.10;99.90;;;;;;3103445;28;20085;-71
2024/01/22 03:19:12;;;;;;;1.17;1.17;;;10.10;99.90;;;;;;3117807;28;20260;-71
2024/01/22 03:20:43;;;;;;;1.38;1.27;;;10.10;99.90;;;;;;3117780;28;20018;-71
2024/01/22 03:22:14;;;;;;;2.88;1.52;;;10.10;99.90;;;;;;3117780;28;20072;-71
2024/01/22 03:23:45;;;;;;;3.92;1.40;;;10.00;99.90;;;;;;3104744;28;20117;-71
2024/01/22 03:25:15;;;;;;;1.00;0.93;;;10.00;99.90;;;;;;3113128;28;20033;-71
2024/01/22 03:26:46;;;;;;;1.52;1.42;;;10.00;99.90;;;;;;3113197;28;20311;-71
2024/01/22 03:28:17;;;;;;;3.05;1.58;;;10.00;99.90;;;;;;3103582;28;20036;-71
2024/01/22 03:29:48;;;;;;;1.55;1.45;;;10.20;99.90;;;;;;3108777;28;20104;-71
2024/01/22 03:31:26;;;;;;;2.22;0.80;;;9.90;99.90;;;;;;3100815;28;20046;-70
2024/01/22 03:32:56;;;;;;;12.35;2.72;;;9.80;99.90;;;;;;3122718;28;20118;-71
2024/01/22 03:34:27;;;;;;;1.42;1.33;;;9.80;99.90;;;;;;3121434;28;20026;-70
2024/01/22 03:35:58;;;;;;;0.90;0.90;;;9.80;99.90;;;;;;3104554;28;20316;-70
2024/01/22 03:37:29;;;;;;;1.48;1.40;;;9.70;99.90;;;;;;3103571;28;20026;-70
2024/01/22 03:39:00;;;;;;;3.67;1.25;;;9.70;99.90;;;;;;3100634;28;20029;-71
2024/01/22 03:40:31;;;;;;;3.55;1.63;;;9.70;99.90;;;;;;3113241;28;20021;-71
2024/01/22 03:42:02;;;;;;;1.15;1.13;;;9.70;99.90;;;;;;3114685;28;20270;-70
2024/01/22 03:43:32;;;;;;;1.15;1.15;;;9.70;99.90;;;;;;3112656;28;20059;-73
2024/01/22 03:45:04;;;;;;;1.08;1.05;;;9.70;99.90;;;;;;3092594;28;20023;-72
2024/01/22 03:46:35;;;;;;;1.20;1.10;;;9.80;99.90;;;;;;3121180;28;20083;-71
2024/01/22 03:48:06;;;;;;;1.10;1.00;;;9.70;99.90;;;;;;3106868;28;20026;-71
2024/01/22 03:49:37;;;;;;;3.13;2.25;;;9.70;99.90;;;;;;3109029;28;20109;-71
2024/01/22 03:51:08;;;;;;;2.22;1.98;;;9.70;99.90;;;;;;3104523;28;20021;-71
2024/01/22 03:52:39;;;;;;;1.58;1.02;;;9.70;99.90;;;;;;3108620;28;20026;-71
2024/01/22 03:54:10;;;;;;;0.88;0.88;;;9.70;99.90;;;;;;3108920;28;20018;-71
2024/01/22 03:55:41;;;;;;;0.90;0.90;;;9.70;99.90;;;;;;3114417;28;20234;-72
2024/01/22 03:57:12;;;;;;;6.00;1.25;;;9.70;99.90;;;;;;3100324;28;20093;-71
2024/01/22 03:58:43;;;;;;;2.17;1.45;;;9.70;99.90;;;;;;3111570;28;20026;-71
2024/01/22 04:00:14;;;;;;;1.90;1.42;;;9.70;99.90;;;;;;3117317;28;20018;-72
2024/01/22 04:01:45;;;;;;;1.48;1.33;;;9.70;99.90;;;;;;3116597;28;20034;-71
2024/01/22 04:03:16;;;;;;;1.73;1.23;;;9.80;99.90;;;;;;3116574;28;20106;-72
2024/01/22 04:04:47;;;;;;;1.15;1.05;;;9.80;99.90;;;;;;3116854;28;20060;-71
2024/01/22 04:06:17;;;;;;;1.10;0.88;;;9.80;99.90;;;;;;3116524;28;20097;-71
2024/01/22 04:07:48;;;;;;;1.80;1.70;;;9.90;99.90;;;;;;3115480;28;20026;-71
2024/01/22 04:09:19;;;;;;;1.50;1.30;;;9.90;99.90;;;;;;3124596;28;20088;-70
2024/01/22 04:10:50;;;;;;;1.00;0.88;;;9.90;99.90;;;;;;3121415;28;20060;-72
2024/01/22 04:12:20;;;;;;;1.35;1.25;;;9.90;99.90;;;;;;3116793;28;20026;-71
2024/01/22 04:13:51;;;;;;;1.15;1.05;;;9.90;99.90;;;;;;3100274;28;20049;-71
2024/01/22 04:15:23;;;;;;;1.48;1.38;;;9.90;99.90;;;;;;3104015;28;20068;-71
2024/01/22 04:16:54;;;;;;;0.80;0.80;;;9.90;99.90;;;;;;3125168;28;20346;-70
2024/01/22 04:18:25;;;;;;;1.23;1.13;;;9.80;99.90;;;;;;3102894;28;20072;-71
2024/01/22 04:19:56;;;;;;;1.13;1.08;;;9.70;99.90;;;;;;3100258;28;20316;-72
2024/01/22 04:21:27;;;;;;;0.65;0.60;;;9.70;99.90;;;;;;3113149;28;20036;-72
2024/01/22 04:22:58;;;;;;;1.25;1.25;;;9.70;99.90;;;;;;3116863;28;20129;-71
2024/01/22 04:24:29;;;;;;;1.88;1.77;;;9.70;99.90;;;;;;3112120;28;20049;-71
2024/01/22 04:26:00;;;;;;;1.42;1.17;;;9.70;99.90;;;;;;3113650;28;20315;-72
2024/01/22 04:27:31;;;;;;;1.60;0.90;;;9.80;99.90;;;;;;3108790;28;20049;-72
2024/01/22 04:29:01;;;;;;;2.45;0.70;;;9.70;99.90;;;;;;3108452;28;20231;-70
2024/01/22 04:30:32;;;;;;;1.05;0.98;;;9.60;99.90;;;;;;3112053;28;20018;-71
2024/01/22 04:32:03;;;;;;;0.90;0.90;;;9.70;99.90;;;;;;3117008;28;20040;-71
2024/01/22 04:33:34;;;;;;;0.70;0.70;;;9.60;99.90;;;;;;3116253;28;20034;-72
2024/01/22 04:35:05;;;;;;;1.50;1.40;;;9.60;99.90;;;;;;3112039;28;20084;-72
2024/01/22 04:36:36;;;;;;;0.75;0.60;;;9.60;99.90;;;;;;3112537;28;20093;-71
2024/01/22 04:38:07;;;;;;;4.20;1.50;;;9.50;99.90;;;;;;3110656;28;20048;-71
2024/01/22 04:39:40;;;;;;;1.75;1.65;;;9.50;99.90;;;;;;3117242;28;20026;-71
2024/01/22 04:41:10;;;;;;;0.70;0.70;;;9.60;99.90;;;;;;3104058;28;20340;-71
2024/01/22 04:42:42;;;;;;;0.68;0.68;;;9.70;99.90;;;;;;3113081;28;20026;-71
2024/01/22 04:44:12;;;;;;;1.20;1.20;;;9.60;99.90;;;;;;3128596;28;20303;-72
2024/01/22 04:45:43;;;;;;;1.05;1.00;;;9.60;99.90;;;;;;3116034;28;20081;-71
2024/01/22 04:47:14;;;;;;;6.00;1.15;;;9.70;99.90;;;;;;3103229;28;20034;-73
2024/01/22 04:48:45;;;;;;;1.20;1.20;;;9.70;99.90;;;;;;3096523;28;20037;-71
2024/01/22 04:50:15;;;;;;;1.15;0.82;;;9.70;99.90;;;;;;3112801;28;20038;-72
2024/01/22 04:51:46;;;;;;;0.60;0.60;;;9.80;99.90;;;;;;3116874;28;20029;-71
2024/01/22 04:53:17;;;;;;;5.07;0.85;;;9.80;99.90;;;;;;3116430;28;20069;-71
2024/01/22 04:54:48;;;;;;;1.42;1.20;;;9.90;99.90;;;;;;3117191;28;20311;-71
2024/01/22 04:56:19;;;;;;;1.45;1.35;;;10.00;99.90;;;;;;3117712;28;20030;-71
2024/01/22 04:57:50;;;;;;;1.75;0.88;;;9.90;99.90;;;;;;3115750;28;20303;-71
2024/01/22 04:59:21;;;;;;;1.73;1.30;;;10.00;99.90;;;;;;3104050;28;20022;-71
2024/01/22 05:00:52;;;;;;;1.38;1.27;;;10.00;99.90;;;;;;3119731;28;20029;-71
2024/01/22 05:02:27;;;;;;;1.05;1.05;;;10.00;99.90;;;;;;3115882;28;20026;-71
2024/01/22 05:03:58;;;;;;;0.52;0.52;;;9.90;99.90;;;;;;3112245;28;20018;-71
2024/01/22 05:05:28;;;;;;;0.88;0.88;;;9.90;99.90;;;;;;3108529;28;20275;-71
2024/01/22 05:06:59;;;;;;;3.40;0.93;;;9.90;99.90;;;;;;3104839;28;20069;-71
2024/01/22 05:08:30;;;;;;;2.00;1.25;;;9.90;99.90;;;;;;3102692;28;20038;-72
2024/01/22 05:10:04;;;;;;;5.13;1.65;;;9.90;99.90;;;;;;3099868;28;20017;-71
2024/01/22 05:11:35;;;;;;;2.70;0.90;;;10.10;99.90;;;;;;3100462;28;20092;-72
2024/01/22 05:13:06;;;;;;;1.15;1.15;;;10.10;99.90;;;;;;3100368;28;20096;-72
2024/01/22 05:14:40;;;;;;;2.67;0.90;;;10.10;99.90;;;;;;3104111;28;20053;-70
2024/01/22 05:16:11;;;;;;;2.58;1.40;;;10.10;99.90;;;;;;3109268;28;20041;-71
2024/01/22 05:17:42;;;;;;;4.32;1.13;;;10.10;99.90;;;;;;3111716;28;20026;-71
2024/01/22 05:19:13;;;;;;;1.20;1.13;;;10.00;99.90;;;;;;3104968;28;20300;-71
2024/01/22 05:20:44;;;;;;;1.85;0.90;;;10.10;99.90;;;;;;3126174;28;20033;-71
2024/01/22 05:22:15;;;;;;;0.85;0.85;;;10.10;99.90;;;;;;3140622;28;20045;-71
2024/01/22 05:23:45;;;;;;;2.33;1.05;;;10.00;99.90;;;;;;3120132;28;20413;-72
2024/01/22 05:25:16;;;;;;;3.25;0.80;;;10.00;99.90;;;;;;3123746;28;20030;-72
2024/01/22 05:26:47;;;;;;;0.82;0.82;;;10.10;99.90;;;;;;3116576;28;20311;-72
2024/01/22 05:28:18;;;;;;;2.70;1.35;;;10.00;99.90;;;;;;3128440;28;20023;-74
2024/01/22 05:29:49;;;;;;;1.17;0.98;;;9.70;99.90;;;;;;3118689;28;20318;-72
2024/01/22 05:31:20;;;;;;;5.93;1.25;;;10.10;99.90;;;;;;3117990;28;20014;-76
2024/01/22 05:32:50;;;;;;;0.93;0.82;;;10.10;99.90;;;;;;3112291;28;20021;-72
2024/01/22 05:34:21;;;;;;;0.82;0.70;;;10.10;99.90;;;;;;3116812;28;20080;-72
2024/01/22 05:35:52;;;;;;;1.48;0.68;;;10.10;99.90;;;;;;3116520;28;20054;-73
2024/01/22 05:37:23;;;;;;;0.85;0.73;;;10.00;99.90;;;;;;3116652;28;20022;-72
2024/01/22 05:38:54;;;;;;;1.02;0.57;;;10.10;99.90;;;;;;3104891;28;20264;-72
2024/01/22 05:40:25;;;;;;;0.60;0.60;;;10.10;99.90;;;;;;3114397;28;20036;-72
2024/01/22 05:41:56;;;;;;;3.28;1.15;;;10.10;99.90;;;;;;3110377;28;20239;-72
2024/01/22 05:43:28;;;;;;;1.65;1.10;;;10.00;99.90;;;;;;3118430;28;20018;-72
2024/01/22 05:44:59;;;;;;;0.77;0.70;;;10.10;99.90;;;;;;3125469;28;20108;-72
2024/01/22 05:46:30;;;;;;;1.05;0.95;;;10.10;99.90;;;;;;3116715;28;20235;-72
2024/01/22 05:48:00;;;;;;;0.70;0.68;;;10.10;99.90;;;;;;3111267;28;20029;-73
2024/01/22 05:49:31;;;;;;;3.40;1.20;;;10.20;99.90;;;;;;3101258;28;20328;-73
2024/01/22 05:51:02;;;;;;;0.75;0.63;;;10.10;99.90;;;;;;3114007;28;20060;-72
2024/01/22 05:52:33;;;;;;;1.17;0.75;;;10.10;99.90;;;;;;3086840;28;20010;-72
2024/01/22 05:54:04;;;;;;;0.75;0.75;;;10.20;99.90;;;;;;3104862;28;20063;-72
2024/01/22 05:55:35;;;;;;;0.82;0.82;;;10.10;99.90;;;;;;3104655;28;20232;-72
2024/01/22 05:57:06;;;;;;;1.38;1.02;;;10.10;99.90;;;;;;3112352;28;20072;-72
2024/01/22 05:58:37;;;;;;;1.10;1.08;;;10.10;99.90;;;;;;3092140;28;20027;-73
2024/01/22 06:00:09;;;;;;;2.28;0.63;;;10.10;99.90;;;;;;3110373;28;20041;-73
2024/01/22 06:01:43;;;;;;;2.05;1.08;;;10.20;99.90;;;;;;3130173;28;20068;-73
2024/01/22 06:03:13;;;;;;;2.35;0.70;;;10.20;99.90;;;;;;3104721;28;20031;-72
2024/01/22 06:04:44;;;;;;;0.98;0.95;;;10.20;99.90;;;;;;3108887;28;20034;-73
2024/01/22 06:06:15;;;;;;;1.25;0.93;;;10.20;99.90;;;;;;3113513;28;20042;-73
2024/01/22 06:07:46;;;;;;;1.13;1.02;;;10.20;99.90;;;;;;3113771;28;20299;-73
2024/01/22 06:09:17;;;;;;;1.67;1.58;;;10.20;99.90;;;;;;3115486;28;20073;-72
2024/01/22 06:10:50;;;;;;;1.10;0.95;;;10.20;99.90;;;;;;3098191;28;20026;-72
2024/01/22 06:12:20;;;;;;;1.70;0.68;;;10.20;99.90;;;;;;3107373;28;20430;-73
2024/01/22 06:13:51;;;;;;;1.42;1.33;;;10.20;99.90;;;;;;3112772;28;20029;-72
2024/01/22 06:15:22;;;;;;;0.93;0.93;;;10.20;99.90;;;;;;3108608;28;20041;-73
2024/01/22 06:16:53;;;;;;;5.53;1.02;;;10.20;99.90;;;;;;3118978;28;20123;-72
2024/01/22 06:18:23;;;;;;;3.20;1.50;;;10.30;99.90;;;;;;3114452;28;20054;-72
2024/01/22 06:19:56;;;;;;;1.27;1.13;;;10.30;99.90;;;;;;3117240;28;20094;-72
2024/01/22 06:21:27;;;;;;;1.60;1.05;;;10.30;99.90;;;;;;3113462;28;20026;-72
2024/01/22 06:22:58;;;;;;;2.45;0.90;;;10.20;99.90;;;;;;3118078;28;20032;-73
2024/01/22 06:24:29;;;;;;;1.20;1.20;;;10.20;99.90;;;;;;3129174;28;20029;-73
2024/01/22 06:26:00;;;;;;;2.75;1.25;;;10.20;99.90;;;;;;3122510;28;20022;-72
2024/01/22 06:27:31;;;;;;;2.30;1.13;;;10.20;99.90;;;;;;3116503;28;20033;-72
2024/01/22 06:29:02;;;;;;;0.88;0.88;;;10.20;99.90;;;;;;3117582;28;20069;-73
2024/01/22 06:30:33;;;;;;;1.30;1.20;;;10.20;99.90;;;;;;3105143;28;20032;-73
2024/01/22 06:32:04;;;;;;;3.75;1.35;;;10.20;99.90;;;;;;3109648;28;20013;-72
2024/01/22 06:33:35;;;;;;;3.28;1.00;;;10.20;99.90;;;;;;3100933;28;20144;-75
2024/01/22 06:35:07;;;;;;;3.00;1.42;;;10.20;99.90;;;;;;3101368;28;20021;-73
2024/01/22 06:36:40;;;;;;;2.15;1.90;;;10.20;99.90;;;;;;3113379;28;20266;-72
2024/01/22 06:38:12;;;;;;;1.20;1.10;;;10.20;99.90;;;;;;3107786;28;20022;-73
2024/01/22 06:39:43;;;;;;;2.80;0.95;;;10.20;99.90;;;;;;3101218;28;20034;-72
2024/01/22 06:41:15;;;;;;;5.70;1.50;;;10.20;99.90;;;;;;3113554;28;20338;-73
2024/01/22 06:42:46;;;;;;;1.02;0.90;;;10.20;99.90;;;;;;3113448;28;20022;-73
2024/01/22 06:44:16;;;;;;;1.33;1.23;;;10.20;99.90;;;;;;3117896;28;20026;-73
2024/01/22 06:45:47;;;;;;;1.85;1.45;;;10.20;99.90;;;;;;3129970;28;20104;-73
2024/01/22 06:47:18;;;;;;;1.23;1.23;;;10.20;99.90;;;;;;3120299;28;20022;-73
2024/01/22 06:48:49;;;;;;;2.03;1.58;;;10.20;99.90;;;;;;3106570;28;20035;-73
2024/01/22 06:50:20;;;;;;;2.30;1.67;;;10.20;99.90;;;;;;3118052;28;20093;-73
2024/01/22 06:51:51;;;;;;;6.88;1.75;;;10.20;99.90;;;;;;3117285;28;20022;-72
2024/01/22 06:53:21;;;;;;;2.85;2.50;;;10.30;99.90;;;;;;3105187;28;20061;-73
2024/01/22 06:54:52;;;;;;;3.92;2.95;;;10.30;99.90;;;;;;3108908;28;20338;-73
2024/01/22 06:56:23;;;;;;;1.60;1.50;;;10.30;99.90;;;;;;3097633;28;20013;-71
2024/01/22 06:57:54;;;;;;;4.90;2.63;;;10.30;99.90;;;;;;3112446;28;20049;-72
2024/01/22 06:59:25;;;;;;;9.75;5.22;;;10.40;99.90;;;;;;3117754;28;20026;-72
2024/01/22 07:00:56;;;;;;;5.75;5.18;;;10.40;99.90;;;;;;3116309;28;20335;-73
2024/01/22 07:02:27;;;;;;;3.83;3.03;;;10.40;99.90;;;;;;3113006;28;20057;-72
2024/01/22 07:03:57;;;;;;;3.13;2.92;;;10.50;99.90;;;;;;3102843;28;20022;-72
2024/01/22 07:05:29;;;;;;;6.63;3.72;;;10.60;99.90;;;;;;3093649;28;20015;-72
2024/01/22 07:07:00;;;;;;;3.15;2.25;;;10.50;99.90;;;;;;3101426;28;20034;-72
2024/01/22 07:08:31;;;;;;;8.00;6.43;;;10.50;99.90;;;;;;3104617;28;20026;-73
2024/01/22 07:10:01;;;;;;;5.93;3.35;;;10.60;99.90;;;;;;3100495;28;20149;-72
2024/01/22 07:11:32;;;;;;;4.00;3.42;;;10.60;99.90;;;;;;3108663;28;20383;-72
2024/01/22 07:13:03;;;;;;;1.48;1.38;;;10.70;99.90;;;;;;3117196;28;20041;-72
2024/01/22 07:14:34;;;;;;;1.73;1.40;;;10.80;99.90;;;;;;3125228;28;20026;-73
2024/01/22 07:16:06;;;;;;;1.88;1.63;;;10.80;99.90;;;;;;3108951;28;20116;-72
2024/01/22 07:17:37;;;;;;;3.08;2.40;;;10.80;99.90;;;;;;3105044;28;20027;-73
2024/01/22 07:19:08;;;;;;;1.38;1.27;;;10.80;99.90;;;;;;3102150;28;20030;-73
2024/01/22 07:20:38;;;;;;;1.30;1.20;;;10.80;99.90;;;;;;3105945;28;20048;-72
2024/01/22 07:22:09;;;;;;;3.15;1.15;;;10.80;99.90;;;;;;3110785;28;20105;-72
2024/01/22 07:23:40;;;;;;;1.98;1.88;;;10.90;99.90;;;;;;3117264;28;20037;-72
2024/01/22 07:25:11;;;;;;;1.73;1.63;;;10.90;99.90;;;;;;3128947;28;20323;-72
2024/01/22 07:26:42;;;;;;;1.95;1.08;;;10.90;99.90;;;;;;3108725;28;20029;-72
2024/01/22 07:28:13;;;;;;;1.40;1.05;;;11.00;99.90;;;;;;3119881;28;20100;-73
2024/01/22 07:29:43;;;;;;;2.00;1.90;;;10.80;99.90;;;;;;3117252;28;20042;-72
2024/01/22 07:31:14;;;;;;;4.38;1.77;;;10.90;99.90;;;;;;3104662;28;20022;-72
2024/01/22 07:32:46;;;;;;;2.45;2.25;;;10.90;99.90;;;;;;3085634;28;20030;-74
2024/01/22 07:34:20;;;;;;;1.15;1.10;;;11.00;99.90;;;;;;3108344;28;20097;-74
2024/01/22 07:35:51;;;;;;;7.30;2.05;;;11.00;99.90;;;;;;3114488;28;20026;-73
2024/01/22 07:37:22;;;;;;;3.13;1.33;;;11.00;99.90;;;;;;3114992;28;20057;-73
2024/01/22 07:38:56;;;;;;;3.80;1.90;;;11.00;99.90;;;;;;3118312;28;20038;-73
2024/01/22 07:40:28;;;;;;;6.50;3.08;;;11.10;99.90;;;;;;3114388;28;20030;-72
2024/01/22 07:41:58;;;;;;;6.03;1.55;;;11.10;99.90;;;;;;3116575;28;20212;-72
2024/01/22 07:43:29;;;;;;;3.65;1.73;;;11.10;99.90;;;;;;3112015;28;20037;-74
2024/01/22 07:45:09;;;;;;;2.72;2.00;;;11.20;99.90;;;;;;3103953;28;20239;-75
2024/01/22 07:46:40;;;;;;;4.50;1.08;;;11.10;99.90;;;;;;3122702;28;20029;-73
2024/01/22 07:48:11;;;;;;;3.95;1.75;;;11.20;99.90;;;;;;3103115;28;20105;-72
2024/01/22 07:49:42;;;;;;;6.18;1.85;;;11.20;99.90;;;;;;3094048;28;20030;-73
2024/01/22 07:51:13;;;;;;;5.55;3.08;;;11.20;99.90;;;;;;3119551;28;20021;-72
2024/01/22 07:52:44;;;;;;;6.40;1.67;;;11.20;99.90;;;;;;3103804;28;20238;-72
2024/01/22 07:54:15;;;;;;;4.45;1.98;;;11.30;99.90;;;;;;3112701;28;20038;-72
2024/01/22 07:55:45;;;;;;;2.55;1.35;;;11.30;99.90;;;;;;3103305;28;20092;-75
2024/01/22 07:57:16;;;;;;;1.90;1.63;;;11.40;99.90;;;;;;3120473;28;20072;-74